createdAt,value
2017-09-10T00:00:22.493Z,94.50
2017-09-10T00:02:50.770Z,94.90
2017-09-10T00:05:18.301Z,94.80
2017-09-10T00:07:45.811Z,94.60
2017-09-10T00:10:13.349Z,95.00
2017-09-10T00:12:41.643Z,94.80
2017-09-10T00:15:09.216Z,95.10
2017-09-10T00:17:36.725Z,94.90
2017-09-10T00:20:04.258Z,94.80
2017-09-10T00:22:31.759Z,95.00
2017-09-10T00:25:00.115Z,94.90
2017-09-10T00:27:27.640Z,94.90
2017-09-10T00:29:55.201Z,95.00
2017-09-10T00:32:22.712Z,94.90
2017-09-10T00:34:51.030Z,94.90
2017-09-10T00:37:18.553Z,94.80
2017-09-10T00:39:47.286Z,95.40
2017-09-10T00:42:14.802Z,95.40
2017-09-10T00:44:43.135Z,95.90
2017-09-10T00:47:10.636Z,95.90
2017-09-10T00:49:38.945Z,96.40
2017-09-10T00:52:06.457Z,96.40
2017-09-10T00:54:33.984Z,96.40
2017-09-10T00:57:01.507Z,96.30
2017-09-10T00:59:29.831Z,96.00
2017-09-10T01:01:57.351Z,96.00
2017-09-10T01:04:24.866Z,95.90
2017-09-10T01:06:52.411Z,96.00
2017-09-10T01:09:19.933Z,95.70
2017-09-10T01:11:47.490Z,95.60
2017-09-10T01:14:15.018Z,95.60
2017-09-10T01:16:42.563Z,95.90
2017-09-10T01:19:10.852Z,96.80
2017-09-10T01:21:39.168Z,97.30
2017-09-10T01:24:06.728Z,97.20
2017-09-10T01:26:34.250Z,97.40
2017-09-10T01:29:01.804Z,97.10
2017-09-10T01:31:29.357Z,97.00
2017-09-10T01:33:58.100Z,96.10
2017-09-10T01:36:25.655Z,96.10
2017-09-10T01:38:53.163Z,95.80
2017-09-10T01:41:20.751Z,95.80
2017-09-10T01:43:49.030Z,95.20
2017-09-10T01:46:16.562Z,95.50
2017-09-10T01:48:44.102Z,95.80
2017-09-10T01:51:11.686Z,95.80
2017-09-10T01:53:39.212Z,96.10
2017-09-10T01:56:06.738Z,96.10
2017-09-10T01:58:35.415Z,96.30
2017-09-10T02:01:02.982Z,96.30
2017-09-10T02:03:31.258Z,95.90
2017-09-10T02:05:59.590Z,95.90
2017-09-10T02:08:27.102Z,95.90
2017-09-10T02:10:54.615Z,96.00
2017-09-10T02:13:22.171Z,96.30
2017-09-10T02:15:49.683Z,96.40
2017-09-10T02:18:17.246Z,96.50
2017-09-10T02:20:44.751Z,96.20
2017-09-10T02:23:12.292Z,96.20
2017-09-10T02:25:39.802Z,96.10
2017-09-10T02:28:08.139Z,96.30
2017-09-10T02:30:35.659Z,96.20
2017-09-10T02:33:03.235Z,96.10
2017-09-10T02:35:30.743Z,96.60
2017-09-10T02:37:58.284Z,96.20
2017-09-10T02:40:25.832Z,96.10
2017-09-10T02:42:53.401Z,95.90
2017-09-10T02:45:20.906Z,96.10
2017-09-10T02:47:49.193Z,96.40
2017-09-10T02:50:16.743Z,96.40
2017-09-10T02:52:44.308Z,96.60
2017-09-10T02:55:11.886Z,96.80
2017-09-10T02:57:39.457Z,96.60
2017-09-10T03:00:06.967Z,96.40
2017-09-10T03:02:34.511Z,96.60
2017-09-10T03:05:02.047Z,96.60
2017-09-10T03:07:29.583Z,96.20
2017-09-10T03:09:58.244Z,96.40
2017-09-10T03:12:26.567Z,96.30
2017-09-10T03:14:54.076Z,96.30
2017-09-10T03:17:22.444Z,96.40
2017-09-10T03:19:49.974Z,96.40
2017-09-10T03:22:17.505Z,96.60
2017-09-10T03:24:45.041Z,95.90
2017-09-10T03:27:13.345Z,96.10
2017-09-10T03:29:40.875Z,96.10
2017-09-10T03:32:08.443Z,96.00
2017-09-10T03:34:35.987Z,96.60
2017-09-10T03:37:04.265Z,96.60
2017-09-10T03:39:31.794Z,96.60
2017-09-10T03:41:59.303Z,96.40
2017-09-10T03:44:26.844Z,96.20
2017-09-10T03:46:55.125Z,96.00
2017-09-10T03:49:23.416Z,95.90
2017-09-10T03:51:50.943Z,95.80
2017-09-10T03:54:18.496Z,96.10
2017-09-10T03:56:46.038Z,96.30
2017-09-10T03:59:13.588Z,96.40
2017-09-10T04:01:41.095Z,96.40
2017-09-10T04:04:08.759Z,96.50
2017-09-10T04:06:36.290Z,96.20
2017-09-10T04:09:03.841Z,96.10
2017-09-10T04:11:31.372Z,96.10
2017-09-10T04:13:58.899Z,96.20
2017-09-10T04:16:27.175Z,96.80
2017-09-10T04:18:55.489Z,97.00
2017-09-10T04:21:23.028Z,96.90
2017-09-10T04:23:50.578Z,97.10
2017-09-10T04:26:18.859Z,96.90
2017-09-10T04:31:20.299Z,96.50
2017-09-10T04:33:47.810Z,96.30
2017-09-10T04:36:15.351Z,96.10
2017-09-10T04:38:42.881Z,96.50
2017-09-10T04:41:10.406Z,96.70
2017-09-10T04:43:37.934Z,96.70
2017-09-10T04:46:05.472Z,96.70
2017-09-10T04:48:33.783Z,97.30
2017-09-10T04:51:01.303Z,97.30
2017-09-10T04:53:28.875Z,97.40
2017-09-10T04:55:56.388Z,97.50
2017-09-10T04:58:23.943Z,97.60
2017-09-10T05:00:51.445Z,97.60
2017-09-10T05:03:19.755Z,98.40
2017-09-10T05:05:47.281Z,98.00
2017-09-10T05:08:15.607Z,98.40
2017-09-10T05:10:43.177Z,98.40
2017-09-10T05:13:11.719Z,98.10
2017-09-10T05:15:39.994Z,98.10
2017-09-10T05:18:07.510Z,98.10
2017-09-10T05:20:35.048Z,98.00
2017-09-10T05:23:02.612Z,97.80
2017-09-10T05:25:30.909Z,98.40
2017-09-10T05:27:58.418Z,98.40
2017-09-10T05:30:25.946Z,98.80
2017-09-10T05:32:53.451Z,98.90
2017-09-10T05:35:20.988Z,98.60
2017-09-10T05:37:49.272Z,98.60
2017-09-10T05:40:16.802Z,98.60
2017-09-10T05:42:44.359Z,98.60
2017-09-10T05:45:11.894Z,98.60
2017-09-10T05:47:39.437Z,98.30
2017-09-10T05:50:06.972Z,98.60
2017-09-10T05:52:34.499Z,98.90
2017-09-10T05:55:02.834Z,99.10
2017-09-10T05:57:30.387Z,99.10
2017-09-10T05:59:57.918Z,98.80
2017-09-10T06:02:25.472Z,98.70
2017-09-10T06:04:53.759Z,98.10
2017-09-10T06:07:22.035Z,97.90
2017-09-10T06:09:50.343Z,97.40
2017-09-10T06:12:17.871Z,97.40
2017-09-10T06:14:46.179Z,97.50
2017-09-10T06:17:13.741Z,97.50
2017-09-10T06:19:41.308Z,97.00
2017-09-10T06:22:08.839Z,96.60
2017-09-10T06:24:36.367Z,96.70
2017-09-10T06:27:03.890Z,97.00
2017-09-10T06:29:31.409Z,96.80
2017-09-10T06:31:58.910Z,96.40
2017-09-10T06:34:26.495Z,96.10
2017-09-10T06:36:54.026Z,96.30
2017-09-10T06:39:21.555Z,96.30
2017-09-10T06:41:49.115Z,96.40
2017-09-10T06:44:16.650Z,96.50
2017-09-10T06:46:44.173Z,96.30
2017-09-10T06:49:11.808Z,94.90
2017-09-10T06:51:39.337Z,95.30
2017-09-10T06:54:07.694Z,95.10
2017-09-10T06:56:35.194Z,95.40
2017-09-10T06:59:02.746Z,94.90
2017-09-10T07:01:30.311Z,94.90
2017-09-10T07:03:57.830Z,94.70
2017-09-10T07:06:25.346Z,95.00
2017-09-10T07:08:52.889Z,95.40
2017-09-10T07:11:20.466Z,95.10
2017-09-10T07:13:48.037Z,95.10
2017-09-10T07:16:15.604Z,95.40
2017-09-10T07:18:43.126Z,95.40
2017-09-10T07:21:10.658Z,95.10
2017-09-10T07:23:38.970Z,94.80
2017-09-10T07:26:06.559Z,94.50
2017-09-10T07:28:34.058Z,94.70
2017-09-10T07:31:02.378Z,94.90
2017-09-10T07:33:30.717Z,94.40
2017-09-10T07:35:58.244Z,94.40
2017-09-10T07:38:25.770Z,94.60
2017-09-10T07:40:53.298Z,94.50
2017-09-10T07:43:20.823Z,94.10
2017-09-10T07:45:48.370Z,94.00
2017-09-10T07:48:15.890Z,94.40
2017-09-10T07:50:44.218Z,93.60
2017-09-10T07:53:11.722Z,93.60
2017-09-10T07:55:40.037Z,93.90
2017-09-10T07:58:07.567Z,93.90
2017-09-10T08:00:35.087Z,93.10
2017-09-10T08:03:02.623Z,92.60
2017-09-10T08:05:30.202Z,92.80
2017-09-10T08:07:58.767Z,93.70
2017-09-10T08:10:26.364Z,93.30
2017-09-10T08:12:53.895Z,93.00
2017-09-10T08:15:21.521Z,92.50
2017-09-10T08:17:49.103Z,92.90
2017-09-10T08:20:16.679Z,93.00
2017-09-10T08:22:44.210Z,92.20
2017-09-10T08:25:11.731Z,91.90
2017-09-10T08:27:40.035Z,91.70
2017-09-10T08:30:07.567Z,91.60
2017-09-10T08:32:35.873Z,91.70
2017-09-10T08:35:03.406Z,91.60
2017-09-10T08:37:31.712Z,90.50
2017-09-10T08:39:59.250Z,90.40
2017-09-10T08:42:27.575Z,90.30
2017-09-10T08:44:55.130Z,90.30
2017-09-10T08:47:22.700Z,89.00
2017-09-10T08:49:50.554Z,85.40
2017-09-10T08:52:18.120Z,83.30
2017-09-10T08:54:45.638Z,79.70
2017-09-10T08:57:13.200Z,73.50
2017-09-10T08:59:41.525Z,70.90
2017-09-10T09:02:09.052Z,70.90
2017-09-10T09:04:36.602Z,68.20
2017-09-10T09:07:04.913Z,62.00
2017-09-10T09:09:32.480Z,61.60
2017-09-10T09:12:00.035Z,58.40
2017-09-10T09:14:27.591Z,55.90
2017-09-10T09:16:55.107Z,54.10
2017-09-10T09:19:23.398Z,52.90
2017-09-10T09:21:51.712Z,52.30
2017-09-10T09:24:19.223Z,52.30
2017-09-10T09:26:46.750Z,52.50
2017-09-10T09:29:14.259Z,52.20
2017-09-10T09:31:41.802Z,49.30
2017-09-10T09:34:09.326Z,49.60
2017-09-10T09:36:37.431Z,46.70
2017-09-10T09:39:05.710Z,42.70
2017-09-10T09:41:34.024Z,44.00
2017-09-10T09:44:01.527Z,44.00
2017-09-10T09:46:29.084Z,43.80
2017-09-10T09:48:56.606Z,45.40
2017-09-10T09:51:24.138Z,45.40
2017-09-10T09:53:52.406Z,49.30
2017-09-10T09:56:19.966Z,49.30
2017-09-10T09:58:47.511Z,50.60
2017-09-10T10:01:15.125Z,50.50
2017-09-10T10:03:42.631Z,49.80
2017-09-10T10:06:11.253Z,48.20
2017-09-10T10:08:38.752Z,48.10
2017-09-10T10:11:06.310Z,47.80
2017-09-10T10:13:33.827Z,45.90
2017-09-10T10:16:01.358Z,47.10
2017-09-10T10:18:29.672Z,42.50
2017-09-10T10:20:58.121Z,42.50
2017-09-10T10:23:25.687Z,43.00
2017-09-10T10:25:53.224Z,42.20
2017-09-10T10:28:20.767Z,43.20
2017-09-10T10:30:48.299Z,44.90
2017-09-10T10:33:15.823Z,46.10
2017-09-10T10:35:43.362Z,45.20
2017-09-10T10:38:10.906Z,46.10
2017-09-10T10:40:38.427Z,46.90
2017-09-10T10:43:05.994Z,47.90
2017-09-10T10:45:33.502Z,49.80
2017-09-10T10:48:01.018Z,46.70
2017-09-10T10:50:28.523Z,43.20
2017-09-10T10:52:56.038Z,41.60
2017-09-10T10:55:25.179Z,38.00
2017-09-10T10:57:52.733Z,38.00
2017-09-10T11:00:20.262Z,37.80
2017-09-10T11:02:47.790Z,37.40
2017-09-10T11:05:15.331Z,36.50
2017-09-10T11:07:43.657Z,41.80
2017-09-10T11:10:11.969Z,43.30
2017-09-10T11:12:39.503Z,43.30
2017-09-10T11:15:07.007Z,43.00
2017-09-10T11:17:35.320Z,44.40
2017-09-10T11:20:02.842Z,44.30
2017-09-10T11:22:31.157Z,40.20
2017-09-10T11:24:58.685Z,40.10
2017-09-10T11:27:26.231Z,40.30
2017-09-10T11:29:54.509Z,43.50
2017-09-10T11:32:22.049Z,43.50
2017-09-10T11:34:49.669Z,41.80
2017-09-10T11:37:17.974Z,40.50
2017-09-10T11:39:46.262Z,37.90
2017-09-10T11:42:13.828Z,37.90
2017-09-10T11:44:41.327Z,36.10
2017-09-10T11:47:08.881Z,35.70
2017-09-10T11:49:37.174Z,33.90
2017-09-10T11:52:04.714Z,33.90
2017-09-10T11:54:32.989Z,33.90
2017-09-10T11:57:01.286Z,35.70
2017-09-10T11:59:28.806Z,35.60
2017-09-10T12:01:56.358Z,36.00
2017-09-10T12:04:24.091Z,38.10
2017-09-10T12:06:51.629Z,39.40
2017-09-10T12:09:20.076Z,41.30
2017-09-10T12:11:48.359Z,44.30
2017-09-10T12:14:16.668Z,45.90
2017-09-10T12:16:44.191Z,45.30
2017-09-10T12:19:12.482Z,46.90
2017-09-10T12:21:40.031Z,46.80
2017-09-10T12:24:07.620Z,47.70
2017-09-10T12:26:35.146Z,47.60
2017-09-10T12:29:03.474Z,47.40
2017-09-10T12:31:30.995Z,47.40
2017-09-10T12:33:58.554Z,48.10
2017-09-10T12:36:26.099Z,46.30
2017-09-10T12:38:54.435Z,41.90
2017-09-10T12:41:21.963Z,41.90
2017-09-10T12:43:50.271Z,42.00
2017-09-10T12:46:17.807Z,42.00
2017-09-10T12:48:46.215Z,42.50
2017-09-10T12:51:13.742Z,42.50
2017-09-10T12:53:41.337Z,42.40
2017-09-10T12:56:08.834Z,42.90
2017-09-10T12:58:36.367Z,42.50
2017-09-10T13:01:03.886Z,43.20
2017-09-10T13:03:31.414Z,44.60
2017-09-10T13:05:59.711Z,45.20
2017-09-10T13:08:27.267Z,45.10
2017-09-10T13:10:54.786Z,46.00
2017-09-10T13:13:22.354Z,46.50
2017-09-10T13:15:49.873Z,47.40
2017-09-10T13:18:17.403Z,47.80
2017-09-10T13:20:44.986Z,47.90
2017-09-10T13:23:12.545Z,49.30
2017-09-10T13:25:40.062Z,48.30
2017-09-10T13:28:07.607Z,49.30
2017-09-10T13:30:35.227Z,50.20
2017-09-10T13:33:02.779Z,48.00
2017-09-10T13:35:30.392Z,47.30
2017-09-10T13:37:59.237Z,45.00
2017-09-10T13:40:26.758Z,45.30
2017-09-10T13:42:54.275Z,42.80
2017-09-10T13:45:21.834Z,41.60
2017-09-10T13:47:49.358Z,41.30
2017-09-10T13:50:17.651Z,41.00
2017-09-10T13:52:45.182Z,41.00
2017-09-10T13:55:13.481Z,41.90
2017-09-10T13:57:41.045Z,41.80
2017-09-10T14:00:08.586Z,41.10
2017-09-10T14:02:36.895Z,44.20
2017-09-10T14:05:04.471Z,44.10
2017-09-10T14:07:31.990Z,44.50
2017-09-10T14:10:00.315Z,46.40
2017-09-10T14:12:27.831Z,46.40
2017-09-10T14:14:56.157Z,46.80
2017-09-10T14:17:23.688Z,46.80
2017-09-10T14:19:51.282Z,47.10
2017-09-10T14:22:18.786Z,46.80
2017-09-10T14:24:46.314Z,46.80
2017-09-10T14:27:13.843Z,46.60
2017-09-10T14:29:41.456Z,47.40
2017-09-10T14:32:09.898Z,48.00
2017-09-10T14:34:37.446Z,47.90
2017-09-10T14:37:05.063Z,48.40
2017-09-10T14:39:32.593Z,48.90
2017-09-10T14:42:00.139Z,48.80
2017-09-10T14:44:27.691Z,48.60
2017-09-10T14:46:55.259Z,47.50
2017-09-10T14:49:22.790Z,46.40
2017-09-10T14:51:50.349Z,47.20
2017-09-10T14:54:17.973Z,46.60
2017-09-10T14:56:45.527Z,44.90
2017-09-10T14:59:13.803Z,45.20
2017-09-10T15:01:41.335Z,44.80
2017-09-10T15:04:09.687Z,45.00
2017-09-10T15:06:37.251Z,45.00
2017-09-10T15:09:04.766Z,46.70
2017-09-10T15:11:33.095Z,47.10
2017-09-10T15:14:00.611Z,47.10
2017-09-10T15:16:28.922Z,47.40
2017-09-10T15:18:56.464Z,47.20
2017-09-10T15:21:24.010Z,48.60
2017-09-10T15:23:52.290Z,48.30
2017-09-10T15:26:20.617Z,48.50
2017-09-10T15:28:48.124Z,48.40
2017-09-10T15:31:16.450Z,48.40
2017-09-10T15:33:44.060Z,48.40
2017-09-10T15:36:11.628Z,50.10
2017-09-10T15:38:39.134Z,49.90
2017-09-10T15:41:06.658Z,50.10
2017-09-10T15:43:34.187Z,50.80
2017-09-10T15:46:02.490Z,51.70
2017-09-10T15:48:29.998Z,51.70
2017-09-10T15:50:57.543Z,51.90
2017-09-10T15:53:25.063Z,52.30
2017-09-10T15:55:52.630Z,52.40
2017-09-10T15:58:20.195Z,52.30
2017-09-10T16:00:47.755Z,52.20
2017-09-10T16:03:15.261Z,51.50
2017-09-10T16:05:43.567Z,52.30
2017-09-10T16:08:11.107Z,52.30
2017-09-10T16:10:38.652Z,52.90
2017-09-10T16:13:06.940Z,52.50
2017-09-10T16:15:34.461Z,53.10
2017-09-10T16:18:02.033Z,52.70
2017-09-10T16:20:29.582Z,52.60
2017-09-10T16:22:57.107Z,53.10
2017-09-10T16:25:25.415Z,53.20
2017-09-10T16:27:53.030Z,53.20
2017-09-10T16:30:20.551Z,53.40
2017-09-10T16:32:48.083Z,53.70
2017-09-10T16:35:15.615Z,53.90
2017-09-10T16:37:43.158Z,54.20
2017-09-10T16:40:10.726Z,54.10
2017-09-10T16:42:38.250Z,53.80
2017-09-10T16:45:05.784Z,54.50
2017-09-10T16:47:33.343Z,54.50
2017-09-10T16:50:00.846Z,54.50
2017-09-10T16:52:28.390Z,55.00
2017-09-10T16:54:55.989Z,54.70
2017-09-10T16:57:23.523Z,54.30
2017-09-10T16:59:51.066Z,54.80
2017-09-10T17:02:18.614Z,55.60
2017-09-10T17:04:46.138Z,56.20
2017-09-10T17:07:14.528Z,56.80
2017-09-10T17:09:42.048Z,56.80
2017-09-10T17:12:09.602Z,57.20
2017-09-10T17:14:37.110Z,57.20
2017-09-10T17:17:04.684Z,57.20
2017-09-10T17:19:32.633Z,57.20
2017-09-10T17:22:00.171Z,56.70
2017-09-10T17:24:28.515Z,57.00
2017-09-10T17:26:56.038Z,57.30
2017-09-10T17:29:23.558Z,57.00
2017-09-10T17:31:51.119Z,57.10
2017-09-10T17:34:18.794Z,57.70
2017-09-10T17:36:46.402Z,57.60
2017-09-10T17:39:13.943Z,58.00
2017-09-10T17:41:41.526Z,57.00
2017-09-10T17:44:09.037Z,56.90
2017-09-10T17:46:36.571Z,57.20
2017-09-10T17:49:04.106Z,57.80
2017-09-10T17:51:31.644Z,56.90
2017-09-10T17:53:59.154Z,56.30
2017-09-10T17:56:26.719Z,56.60
2017-09-10T17:58:54.467Z,56.80
2017-09-10T18:01:22.836Z,56.60
2017-09-10T18:03:50.383Z,56.60
2017-09-10T18:06:17.958Z,57.00
2017-09-10T18:08:45.513Z,57.00
2017-09-10T18:11:13.038Z,57.30
2017-09-10T18:13:41.359Z,57.30
2017-09-10T18:16:08.926Z,57.30
2017-09-10T18:18:36.480Z,57.50
2017-09-10T18:21:03.995Z,57.50
2017-09-10T18:23:32.323Z,57.60
2017-09-10T18:25:59.871Z,57.50
2017-09-10T18:28:27.387Z,57.30
2017-09-10T18:30:55.676Z,58.00
2017-09-10T18:33:23.982Z,58.20
2017-09-10T18:35:51.487Z,58.00
2017-09-10T18:38:19.046Z,57.60
2017-09-10T18:40:47.362Z,57.70
2017-09-10T18:43:14.916Z,57.70
2017-09-10T18:45:42.470Z,57.80
2017-09-10T18:48:10.028Z,57.50
2017-09-10T18:50:37.586Z,57.20
2017-09-10T18:53:05.915Z,58.10
2017-09-10T18:55:33.464Z,57.50
2017-09-10T18:58:01.036Z,57.60
2017-09-10T19:00:28.568Z,57.80
2017-09-10T19:02:56.099Z,57.90
2017-09-10T19:05:23.620Z,57.20
2017-09-10T19:07:51.190Z,57.00
2017-09-10T19:10:18.706Z,56.50
2017-09-10T19:12:46.271Z,56.70
2017-09-10T19:15:13.794Z,56.80
2017-09-10T19:17:42.120Z,57.50
2017-09-10T19:20:09.648Z,57.50
2017-09-10T19:22:37.203Z,57.50
2017-09-10T19:25:04.729Z,57.50
2017-09-10T19:27:32.250Z,57.60
2017-09-10T19:29:59.824Z,57.60
2017-09-10T19:32:27.366Z,57.70
2017-09-10T19:34:54.926Z,57.60
2017-09-10T19:37:22.483Z,57.70
2017-09-10T19:39:50.034Z,58.20
2017-09-10T19:42:17.634Z,57.80
2017-09-10T19:44:45.185Z,58.00
2017-09-10T19:47:12.691Z,58.10
2017-09-10T19:49:40.274Z,58.90
2017-09-10T19:52:07.779Z,58.60
2017-09-10T19:54:35.325Z,59.20
2017-09-10T19:57:02.835Z,59.50
2017-09-10T19:59:30.397Z,59.30
2017-09-10T20:01:58.843Z,59.40
2017-09-10T20:04:26.524Z,59.50
2017-09-10T20:06:54.104Z,59.60
2017-09-10T20:09:21.630Z,60.10
2017-09-10T20:11:49.167Z,60.50
2017-09-10T20:14:16.735Z,61.00
2017-09-10T20:16:44.247Z,61.60
2017-09-10T20:19:11.807Z,61.30
2017-09-10T20:21:39.321Z,62.30
2017-09-10T20:24:06.891Z,62.60
2017-09-10T20:26:35.578Z,63.70
2017-09-10T20:29:03.885Z,64.10
2017-09-10T20:31:31.394Z,64.00
2017-09-10T20:33:59.051Z,63.70
2017-09-10T20:36:27.335Z,63.00
2017-09-10T20:38:54.889Z,62.90
2017-09-10T20:41:22.446Z,63.30
2017-09-10T20:43:49.983Z,62.70
2017-09-10T20:46:17.515Z,63.00
2017-09-10T20:48:45.057Z,63.00
2017-09-10T20:51:13.340Z,65.70
2017-09-10T20:53:41.661Z,65.10
2017-09-10T20:56:09.195Z,65.00
2017-09-10T20:58:36.739Z,64.30
2017-09-10T21:01:05.018Z,64.20
2017-09-10T21:03:32.542Z,64.20
2017-09-10T21:06:00.038Z,64.70
2017-09-10T21:08:27.572Z,64.60
2017-09-10T21:10:55.073Z,64.20
2017-09-10T21:13:22.595Z,65.40
2017-09-10T21:15:50.146Z,65.50
2017-09-10T21:18:17.749Z,66.50
2017-09-10T21:20:45.312Z,66.90
2017-09-10T21:23:12.924Z,67.90
2017-09-10T21:25:40.580Z,68.00
2017-09-10T21:28:08.121Z,67.70
2017-09-10T21:30:35.670Z,68.00
2017-09-10T21:33:03.185Z,67.20
2017-09-10T21:35:30.738Z,67.10
2017-09-10T21:37:59.173Z,67.10
2017-09-10T21:40:26.731Z,67.40
2017-09-10T21:42:54.290Z,67.40
2017-09-10T21:45:21.819Z,69.00
2017-09-10T21:47:50.133Z,68.50
2017-09-10T21:50:17.699Z,68.50
2017-09-10T21:52:45.276Z,69.20
2017-09-10T21:55:12.827Z,69.50
2017-09-10T21:57:40.383Z,69.50
2017-09-10T22:00:08.109Z,69.30
2017-09-10T22:02:35.616Z,69.40
2017-09-10T22:05:03.168Z,69.80
2017-09-10T22:07:30.700Z,69.60
2017-09-10T22:09:59.148Z,69.20
2017-09-10T22:12:26.695Z,69.50
2017-09-10T22:14:54.287Z,70.30
2017-09-10T22:17:21.834Z,70.60
2017-09-10T22:19:50.118Z,70.30
2017-09-10T22:22:18.408Z,69.70
2017-09-10T22:24:45.966Z,69.50
2017-09-10T22:27:13.535Z,69.60
2017-09-10T22:29:41.072Z,70.80
2017-09-10T22:32:08.603Z,72.00
2017-09-10T22:34:36.147Z,71.70
2017-09-10T22:37:03.671Z,72.30
2017-09-10T22:39:31.223Z,72.20
2017-09-10T22:42:00.000Z,74.40
2017-09-10T22:44:28.314Z,73.90
2017-09-10T22:46:55.942Z,73.80
2017-09-10T22:49:24.238Z,74.10
2017-09-10T22:51:51.809Z,74.00
2017-09-10T22:54:19.355Z,73.50
2017-09-10T22:56:46.967Z,74.90
2017-09-10T22:59:14.470Z,74.70
2017-09-10T23:01:42.035Z,74.70
2017-09-10T23:04:09.562Z,74.30
2017-09-10T23:06:37.132Z,75.10
2017-09-10T23:09:05.422Z,76.80
2017-09-10T23:11:33.733Z,76.60
2017-09-10T23:14:02.026Z,78.00
2017-09-10T23:16:29.574Z,77.10
2017-09-10T23:18:57.084Z,77.10
2017-09-10T23:21:25.380Z,78.00
2017-09-10T23:23:52.978Z,78.00
2017-09-10T23:26:20.515Z,78.00
2017-09-10T23:28:48.038Z,77.90
2017-09-10T23:31:16.320Z,79.20
2017-09-10T23:33:43.863Z,79.10
2017-09-10T23:36:12.256Z,82.00
2017-09-10T23:38:40.543Z,80.70
2017-09-10T23:41:08.875Z,80.30
2017-09-10T23:43:36.413Z,80.20
2017-09-10T23:46:03.990Z,79.90
2017-09-10T23:48:32.319Z,81.10
2017-09-10T23:51:00.610Z,82.00
2017-09-10T23:53:28.126Z,81.90
2017-09-10T23:55:55.687Z,82.60
2017-09-10T23:58:23.192Z,82.90
